Time;durP1;ratioP1;P1;durP2;ratioP2;P2;SDS_P1;SDS_P2;PMS_P1;PMS_P2;Temp;Humidity;BMP_temperature;BMP_pressure;BME280_temperature;BME280_humidity;BME280_pressure;Samples;Min_cycle;Max_cycle;Signal;HPM_P1;HPM_P2
2022/01/10 00:00:38;;;;;;;24.88;5.63;;;4.00;99.90;;;;;;5093178;28;20039;-67
2022/01/10 00:03:04;;;;;;;18.75;5.68;;;4.00;99.90;;;;;;5092851;28;20054;-67
2022/01/10 00:05:30;;;;;;;12.07;4.93;;;4.00;99.90;;;;;;5093179;28;20484;-67
2022/01/10 00:07:55;;;;;;;13.98;4.55;;;4.00;99.90;;;;;;5093104;28;20047;-67
2022/01/10 00:10:22;;;;;;;16.45;4.85;;;3.90;99.90;;;;;;5076314;28;20116;-67
2022/01/10 00:12:47;;;;;;;17.15;5.78;;;3.90;99.90;;;;;;5110975;28;20039;-66
2022/01/10 00:15:16;;;;;;;14.07;5.68;;;3.80;99.90;;;;;;5092909;28;20519;-67
2022/01/10 00:17:42;;;;;;;13.48;5.10;;;3.80;99.90;;;;;;5097251;28;20400;-67
2022/01/10 00:20:11;;;;;;;13.93;5.05;;;3.90;99.90;;;;;;5115496;28;20042;-67
2022/01/10 00:22:37;;;;;;;20.90;5.80;;;3.80;99.90;;;;;;5115081;28;20039;-67
2022/01/10 00:25:03;;;;;;;11.60;4.93;;;3.80;99.90;;;;;;5097447;28;20043;-67
2022/01/10 00:27:29;;;;;;;19.00;5.03;;;3.80;99.90;;;;;;5097105;28;20039;-67
2022/01/10 00:29:55;;;;;;;15.88;4.90;;;3.80;99.90;;;;;;5097359;28;20411;-67
2022/01/10 00:32:23;;;;;;;17.50;5.28;;;3.80;99.90;;;;;;5096750;28;20047;-67
2022/01/10 00:34:49;;;;;;;16.48;5.38;;;3.80;99.90;;;;;;5115286;28;20081;-67
2022/01/10 00:37:14;;;;;;;18.90;5.93;;;3.80;99.90;;;;;;5080064;28;20454;-67
2022/01/10 00:39:40;;;;;;;16.15;5.25;;;3.90;99.90;;;;;;5096950;28;20085;-67
2022/01/10 00:42:05;;;;;;;18.48;5.88;;;3.70;99.90;;;;;;5114708;28;20047;-67
2022/01/10 00:44:37;;;;;;;18.13;5.57;;;3.80;99.90;;;;;;5096806;28;20043;-67
2022/01/10 00:47:03;;;;;;;19.48;5.63;;;3.80;99.90;;;;;;5115076;28;20492;-67
2022/01/10 00:49:29;;;;;;;24.63;5.45;;;3.70;99.90;;;;;;5096712;28;20124;-67
2022/01/10 00:51:55;;;;;;;16.42;5.20;;;3.70;99.90;;;;;;5096310;28;20079;-67
2022/01/10 00:54:20;;;;;;;15.50;5.38;;;3.70;99.90;;;;;;5079409;28;20050;-67
2022/01/10 00:56:46;;;;;;;16.15;5.03;;;3.70;99.90;;;;;;5096475;28;20051;-67
2022/01/10 00:59:11;;;;;;;16.05;5.90;;;3.60;99.90;;;;;;5096680;28;20089;-67
2022/01/10 01:01:37;;;;;;;15.55;5.05;;;3.60;99.90;;;;;;5096299;28;20036;-66
2022/01/10 01:04:03;;;;;;;15.85;6.50;;;3.70;99.90;;;;;;5114456;28;20085;-67
2022/01/10 01:06:29;;;;;;;10.32;4.95;;;3.50;99.90;;;;;;5114608;28;20097;-67
2022/01/10 01:09:00;;;;;;;19.67;6.75;;;3.50;99.90;;;;;;5114444;28;20035;-67
2022/01/10 01:14:07;;;;;;;14.02;5.38;;;3.50;99.90;;;;;;5096167;28;20058;-66
2022/01/10 01:24:15;;;;;;;15.25;6.28;;;3.30;99.90;;;;;;5095992;28;20047;-66
2022/01/10 01:26:46;;;;;;;14.55;5.85;;;3.40;99.90;;;;;;5114281;28;20412;-66
2022/01/10 01:29:15;;;;;;;9.52;5.25;;;3.40;99.90;;;;;;5096076;28;20377;-66
2022/01/10 01:31:41;;;;;;;18.45;6.15;;;3.20;99.90;;;;;;5095621;28;20096;-66
2022/01/10 01:34:07;;;;;;;14.25;5.68;;;3.30;99.90;;;;;;5095884;28;20584;-66
2022/01/10 01:36:34;;;;;;;16.60;5.70;;;3.40;99.90;;;;;;5078894;28;20133;-67
2022/01/10 01:39:04;;;;;;;13.80;5.28;;;3.30;99.90;;;;;;5095711;28;20039;-67
2022/01/10 01:43:56;;;;;;;21.45;6.80;;;3.30;99.90;;;;;;5095685;28;20040;-67
2022/01/10 01:46:22;;;;;;;13.70;6.35;;;3.30;99.90;;;;;;5095929;28;20130;-67
2022/01/10 01:48:49;;;;;;;18.23;6.55;;;3.20;99.90;;;;;;5095615;28;20496;-67
2022/01/10 01:51:15;;;;;;;17.90;6.90;;;3.20;99.90;;;;;;5095639;28;20070;-67
2022/01/10 01:53:41;;;;;;;15.80;5.47;;;3.20;99.90;;;;;;5113424;28;20039;-67
2022/01/10 01:56:09;;;;;;;13.68;6.45;;;3.10;99.90;;;;;;5113746;28;20052;-67
2022/01/10 01:58:37;;;;;;;18.92;6.80;;;3.10;99.90;;;;;;5095340;28;20069;-67
2022/01/10 02:01:05;;;;;;;16.55;5.60;;;3.00;99.90;;;;;;5095244;28;20043;-67
2022/01/10 02:03:33;;;;;;;19.02;5.53;;;3.10;99.90;;;;;;5094837;28;20047;-67
2022/01/10 02:05:58;;;;;;;20.05;6.20;;;2.90;99.90;;;;;;5095492;28;20066;-67
2022/01/10 02:08:24;;;;;;;16.77;6.55;;;2.80;99.90;;;;;;5113398;28;20036;-67
2022/01/10 02:10:50;;;;;;;12.25;5.85;;;2.80;99.90;;;;;;5113452;28;20044;-67
2022/01/10 02:13:15;;;;;;;15.32;6.35;;;2.80;99.90;;;;;;5112867;28;20051;-67
2022/01/10 02:15:57;;;;;;;16.33;5.93;;;2.80;99.90;;;;;;5095465;28;20503;-66
2022/01/10 02:18:24;;;;;;;13.17;5.90;;;2.70;99.90;;;;;;5113311;28;20047;-67
2022/01/10 02:20:50;;;;;;;14.68;6.22;;;2.70;99.90;;;;;;5113338;28;20038;-67
2022/01/10 02:23:17;;;;;;;15.60;7.20;;;2.70;99.90;;;;;;5077695;28;20036;-67
2022/01/10 02:25:44;;;;;;;19.20;7.60;;;2.70;99.90;;;;;;5113129;28;20492;-67
2022/01/10 02:28:10;;;;;;;17.98;6.80;;;2.70;99.90;;;;;;5112972;28;20043;-67
2022/01/10 02:30:35;;;;;;;18.85;7.03;;;2.70;99.90;;;;;;5077792;28;20070;-67
2022/01/10 02:33:02;;;;;;;12.48;6.40;;;2.70;99.90;;;;;;5112405;28;20035;-67
2022/01/10 02:35:38;;;;;;;16.48;6.38;;;2.80;99.90;;;;;;5094671;28;20488;-67
2022/01/10 02:38:04;;;;;;;19.63;8.40;;;2.80;99.90;;;;;;5094222;28;20511;-67
2022/01/10 02:40:31;;;;;;;20.85;7.93;;;2.70;99.90;;;;;;5077372;28;20051;-67
2022/01/10 02:42:57;;;;;;;23.60;7.10;;;2.80;99.90;;;;;;5094049;28;20140;-67
2022/01/10 02:45:23;;;;;;;20.73;7.28;;;2.70;99.90;;;;;;5094384;28;20510;-67
2022/01/10 02:47:49;;;;;;;19.05;7.65;;;2.70;99.90;;;;;;5094376;28;20513;-67
2022/01/10 02:50:16;;;;;;;14.68;7.15;;;2.80;99.90;;;;;;5112652;28;20108;-67
2022/01/10 02:52:42;;;;;;;15.43;7.03;;;2.70;99.90;;;;;;5112194;28;20480;-68
2022/01/10 02:55:09;;;;;;;14.88;6.90;;;2.70;99.90;;;;;;5077298;28;20198;-67
2022/01/10 02:57:36;;;;;;;18.92;7.32;;;2.70;99.90;;;;;;5077048;28;20713;-67
2022/01/10 03:00:23;;;;;;;18.40;8.15;;;2.70;99.90;;;;;;5094449;28;20400;-67
2022/01/10 03:02:50;;;;;;;12.30;6.72;;;2.70;99.90;;;;;;5094014;28;20047;-67
2022/01/10 03:05:18;;;;;;;25.30;7.75;;;2.70;99.90;;;;;;5112345;28;20054;-67
2022/01/10 03:07:44;;;;;;;15.95;8.00;;;2.70;99.90;;;;;;5093926;28;20043;-67
2022/01/10 03:10:10;;;;;;;18.80;8.02;;;2.80;99.90;;;;;;5094089;28;20054;-67
2022/01/10 03:12:36;;;;;;;16.85;7.70;;;2.70;99.90;;;;;;5076445;28;20096;-68
2022/01/10 03:15:04;;;;;;;22.60;8.07;;;2.80;99.90;;;;;;5094010;28;20047;-67
2022/01/10 03:17:30;;;;;;;23.00;7.97;;;2.80;99.90;;;;;;5077288;28;20062;-67
2022/01/10 03:19:56;;;;;;;16.10;7.18;;;2.80;99.90;;;;;;5112770;28;20050;-67
2022/01/10 03:22:22;;;;;;;24.13;7.82;;;2.70;99.90;;;;;;5093611;28;20118;-67
2022/01/10 03:24:48;;;;;;;21.20;7.93;;;2.80;99.90;;;;;;5094144;28;20487;-67
2022/01/10 03:27:14;;;;;;;17.65;7.75;;;2.80;99.90;;;;;;5112109;28;20047;-67
2022/01/10 03:29:40;;;;;;;16.00;7.93;;;2.70;99.90;;;;;;5093999;28;20047;-67
2022/01/10 03:32:07;;;;;;;24.38;7.63;;;2.70;99.90;;;;;;5111868;28;20142;-67
2022/01/10 03:34:33;;;;;;;20.92;7.53;;;2.70;99.90;;;;;;5093734;28;20051;-67
2022/01/10 03:36:59;;;;;;;18.38;8.20;;;2.80;99.90;;;;;;5111762;28;20039;-67
2022/01/10 03:39:24;;;;;;;22.77;9.13;;;2.80;99.90;;;;;;5093400;28;20072;-67
2022/01/10 03:41:50;;;;;;;16.77;7.15;;;2.60;99.90;;;;;;5111378;28;20032;-67
2022/01/10 03:44:16;;;;;;;19.67;7.35;;;2.60;99.90;;;;;;5093494;28;20045;-67
2022/01/10 03:46:42;;;;;;;20.63;7.78;;;2.60;99.90;;;;;;5111608;28;20075;-67
2022/01/10 03:49:08;;;;;;;21.17;9.05;;;2.60;99.90;;;;;;5111693;28;20511;-68
2022/01/10 03:51:33;;;;;;;22.83;7.60;;;2.50;99.90;;;;;;5092070;28;20142;-67
2022/01/10 03:54:00;;;;;;;18.35;7.68;;;2.50;99.90;;;;;;5076348;28;20111;-67
2022/01/10 03:56:30;;;;;;;20.10;8.73;;;2.50;99.90;;;;;;5076533;28;20161;-67
2022/01/10 03:58:56;;;;;;;13.90;7.57;;;2.40;99.90;;;;;;5111456;28;20065;-67
2022/01/10 04:01:22;;;;;;;16.33;7.70;;;2.50;99.90;;;;;;5093041;28;20118;-67
2022/01/10 04:03:47;;;;;;;17.88;7.38;;;2.30;99.90;;;;;;5092926;28;20036;-67
2022/01/10 04:06:13;;;;;;;20.00;7.38;;;2.40;99.90;;;;;;5111294;28;20039;-67
2022/01/10 04:08:39;;;;;;;20.60;8.20;;;2.40;99.90;;;;;;5093151;28;20122;-67
2022/01/10 04:11:05;;;;;;;19.08;8.57;;;2.40;99.90;;;;;;5093110;28;20043;-67
2022/01/10 04:13:31;;;;;;;17.13;7.88;;;2.40;99.90;;;;;;5092674;28;20039;-67
2022/01/10 04:15:56;;;;;;;17.65;7.78;;;2.30;99.90;;;;;;5076491;28;20108;-67
2022/01/10 04:18:22;;;;;;;15.10;8.18;;;2.20;99.90;;;;;;5076129;28;20035;-67
2022/01/10 04:20:48;;;;;;;16.95;7.88;;;2.20;99.90;;;;;;5093307;28;20036;-67
2022/01/10 04:23:15;;;;;;;15.70;7.78;;;2.20;99.90;;;;;;5092494;28;20089;-67
2022/01/10 04:25:41;;;;;;;17.15;7.05;;;2.10;99.90;;;;;;5093001;28;20031;-67
2022/01/10 04:28:07;;;;;;;16.13;8.32;;;2.30;99.90;;;;;;5092917;28;20044;-67
2022/01/10 04:30:33;;;;;;;20.27;8.30;;;2.20;99.90;;;;;;5111262;28;20040;-67
2022/01/10 04:33:01;;;;;;;17.85;7.80;;;2.20;99.90;;;;;;5111363;28;20449;-68
2022/01/10 04:35:27;;;;;;;19.30;7.95;;;2.10;99.90;;;;;;5094428;28;20101;-67
2022/01/10 04:37:53;;;;;;;19.55;8.43;;;2.10;99.90;;;;;;5094234;28;20062;-67
2022/01/10 04:40:19;;;;;;;15.38;7.40;;;2.00;99.90;;;;;;5094338;28;20035;-67
2022/01/10 04:42:45;;;;;;;19.95;8.45;;;2.00;99.90;;;;;;5092877;28;20055;-67
2022/01/10 04:45:11;;;;;;;17.73;7.28;;;2.00;99.90;;;;;;5092643;28;20043;-67
2022/01/10 04:47:37;;;;;;;18.60;8.60;;;2.00;99.90;;;;;;5075972;28;20066;-67
2022/01/10 04:53:00;;;;;;;15.43;8.40;;;1.90;99.90;;;;;;5079053;28;20511;-67
2022/01/10 04:55:25;;;;;;;20.25;8.52;;;1.90;99.90;;;;;;5110902;28;20042;-67
2022/01/10 04:57:51;;;;;;;16.52;7.90;;;1.90;99.90;;;;;;5092502;28;20071;-67
2022/01/10 05:00:17;;;;;;;14.23;8.27;;;1.90;99.90;;;;;;5092584;28;20399;-67
2022/01/10 05:02:46;;;;;;;17.75;8.25;;;1.90;99.90;;;;;;5112763;28;20039;-67
2022/01/10 05:05:11;;;;;;;17.92;8.40;;;1.90;99.90;;;;;;5114708;28;20039;-67
2022/01/10 05:07:37;;;;;;;19.15;8.43;;;1.80;99.90;;;;;;5114651;28;20047;-67
2022/01/10 05:10:03;;;;;;;15.23;8.10;;;1.80;99.90;;;;;;5114653;28;20071;-67
2022/01/10 05:12:29;;;;;;;15.27;8.43;;;1.80;99.90;;;;;;5095953;28;20077;-67
2022/01/10 05:14:55;;;;;;;19.40;7.97;;;1.80;99.90;;;;;;5114556;28;20692;-67
2022/01/10 05:17:22;;;;;;;22.00;8.02;;;1.80;99.90;;;;;;5114261;28;20036;-67
2022/01/10 05:19:48;;;;;;;18.58;8.30;;;1.80;99.90;;;;;;5096153;28;20065;-67
2022/01/10 05:22:14;;;;;;;16.80;8.27;;;1.80;99.90;;;;;;5095443;28;20419;-67
2022/01/10 05:24:39;;;;;;;14.95;8.57;;;1.80;99.90;;;;;;5114338;28;20062;-67
2022/01/10 05:27:05;;;;;;;17.90;9.15;;;1.80;99.90;;;;;;5096106;28;20044;-67
2022/01/10 05:29:31;;;;;;;14.57;7.63;;;1.80;99.90;;;;;;5095845;28;20043;-68
2022/01/10 05:31:57;;;;;;;16.77;9.15;;;1.80;99.90;;;;;;5095636;28;20073;-67
2022/01/10 05:34:23;;;;;;;15.45;9.13;;;1.80;99.90;;;;;;5095855;28;20385;-67
2022/01/10 05:36:48;;;;;;;19.58;8.50;;;1.70;99.90;;;;;;5095808;28;20100;-67
2022/01/10 05:39:14;;;;;;;18.50;9.13;;;1.70;99.90;;;;;;5114044;28;20400;-67
2022/01/10 05:41:40;;;;;;;19.30;8.93;;;1.70;99.90;;;;;;5095572;28;20043;-67
2022/01/10 05:44:05;;;;;;;26.70;9.88;;;1.70;99.90;;;;;;5113758;28;20469;-67
2022/01/10 05:46:32;;;;;;;16.88;9.05;;;1.70;99.90;;;;;;5113940;28;20555;-67
2022/01/10 05:49:01;;;;;;;19.58;9.07;;;1.70;99.90;;;;;;5095836;28;20122;-67
2022/01/10 05:51:29;;;;;;;16.33;8.80;;;1.70;99.90;;;;;;5078585;28;20059;-67
2022/01/10 05:53:55;;;;;;;18.83;8.15;;;1.70;99.90;;;;;;5113496;28;20421;-67
2022/01/10 05:56:21;;;;;;;15.90;8.68;;;1.60;99.90;;;;;;5095603;28;20434;-67
2022/01/10 05:58:47;;;;;;;13.80;8.57;;;1.60;99.90;;;;;;5078469;28;20039;-67
2022/01/10 06:01:13;;;;;;;13.40;7.15;;;1.40;99.90;;;;;;5095302;28;20438;-67
2022/01/10 06:03:38;;;;;;;11.23;7.05;;;1.40;99.90;;;;;;5094935;28;20097;-67
2022/01/10 06:06:04;;;;;;;13.98;7.00;;;1.40;99.90;;;;;;5113545;28;20114;-67
2022/01/10 06:08:29;;;;;;;12.20;7.90;;;1.30;99.90;;;;;;5078419;28;20042;-67
2022/01/10 06:10:55;;;;;;;13.10;7.40;;;1.40;99.90;;;;;;5113462;28;20441;-67
2022/01/10 06:13:20;;;;;;;12.63;8.10;;;1.50;99.90;;;;;;5112052;28;20044;-67
2022/01/10 06:15:46;;;;;;;10.30;6.38;;;1.50;99.90;;;;;;5095012;28;20059;-67
2022/01/10 06:18:12;;;;;;;10.63;7.07;;;1.40;99.90;;;;;;5113285;28;20492;-68
2022/01/10 06:20:37;;;;;;;13.55;7.82;;;1.50;99.90;;;;;;5113165;28;20035;-67
2022/01/10 06:23:03;;;;;;;12.02;6.78;;;1.50;99.90;;;;;;5112792;28;20043;-67
2022/01/10 06:25:29;;;;;;;12.48;6.63;;;1.40;99.90;;;;;;5095464;28;20039;-67
2022/01/10 06:27:57;;;;;;;10.65;6.82;;;1.40;99.90;;;;;;5113398;28;20051;-69
2022/01/10 06:30:23;;;;;;;16.27;7.65;;;1.40;99.90;;;;;;5094926;28;20055;-69
2022/01/10 06:32:49;;;;;;;12.00;6.72;;;1.40;99.90;;;;;;5094337;28;20043;-69
2022/01/10 06:35:15;;;;;;;10.90;7.45;;;1.40;99.90;;;;;;5094404;28;20130;-69
2022/01/10 06:37:40;;;;;;;14.65;8.18;;;1.40;99.90;;;;;;5094351;28;20054;-69
2022/01/10 06:40:07;;;;;;;17.13;8.25;;;1.30;99.90;;;;;;5094682;28;20043;-69
2022/01/10 06:42:33;;;;;;;14.85;7.53;;;1.30;99.90;;;;;;5094022;28;20118;-69
2022/01/10 06:44:58;;;;;;;11.70;7.07;;;1.50;99.90;;;;;;5077641;28;20135;-69
2022/01/10 06:47:24;;;;;;;10.68;7.32;;;1.30;99.90;;;;;;5112721;28;20036;-69
2022/01/10 06:49:50;;;;;;;15.23;7.10;;;1.40;99.90;;;;;;5094372;28;20039;-69
2022/01/10 06:52:16;;;;;;;19.88;7.97;;;1.20;99.90;;;;;;5093976;28;20492;-69
2022/01/10 06:54:42;;;;;;;14.15;7.20;;;1.10;99.90;;;;;;5112589;28;20106;-69
2022/01/10 06:57:07;;;;;;;13.98;7.57;;;1.00;99.90;;;;;;5112390;28;20075;-69
2022/01/10 06:59:33;;;;;;;12.75;7.35;;;1.10;99.90;;;;;;5094126;28;20071;-69
2022/01/10 07:01:59;;;;;;;9.85;6.55;;;1.20;99.90;;;;;;5093734;28;20114;-69
2022/01/10 07:04:26;;;;;;;11.68;6.78;;;1.20;99.90;;;;;;5077205;28;20368;-70
2022/01/10 07:06:52;;;;;;;12.48;7.45;;;1.20;99.90;;;;;;5094271;28;20207;-69
2022/01/10 07:09:18;;;;;;;11.68;7.22;;;1.10;99.90;;;;;;5093922;28;20058;-69
2022/01/10 07:11:44;;;;;;;13.30;8.57;;;1.10;99.90;;;;;;5111788;28;20066;-69
2022/01/10 07:14:12;;;;;;;15.32;9.45;;;1.10;99.90;;;;;;5112128;28;20047;-68
2022/01/10 07:16:37;;;;;;;11.05;7.97;;;1.10;99.90;;;;;;5093704;28;20104;-69
2022/01/10 07:19:05;;;;;;;9.40;7.28;;;1.10;99.90;;;;;;5112090;28;20043;-69
2022/01/10 07:21:30;;;;;;;8.95;7.10;;;1.10;99.90;;;;;;5093513;28;20036;-69
2022/01/10 07:23:56;;;;;;;10.60;7.50;;;1.10;99.90;;;;;;5111877;28;20036;-69
2022/01/10 07:26:22;;;;;;;13.05;7.63;;;1.10;99.90;;;;;;5093591;28;20389;-69
2022/01/10 07:28:48;;;;;;;10.05;7.50;;;1.20;99.90;;;;;;5093656;28;20499;-69
2022/01/10 07:31:14;;;;;;;14.05;7.97;;;1.00;99.90;;;;;;5111085;28;20045;-69
2022/01/10 07:33:40;;;;;;;11.13;8.18;;;1.10;99.90;;;;;;5108420;28;20118;-73
2022/01/10 07:36:05;;;;;;;17.67;8.45;;;1.00;99.90;;;;;;5108877;28;20059;-69
2022/01/10 07:38:35;;;;;;;13.45;8.73;;;0.90;99.90;;;;;;5076040;28;20043;-69
2022/01/10 07:41:08;;;;;;;12.95;8.45;;;0.90;99.90;;;;;;5097838;28;20778;-69
2022/01/10 07:43:34;;;;;;;11.68;8.60;;;1.00;99.90;;;;;;5091355;28;20055;-69
2022/01/10 07:46:00;;;;;;;13.90;8.80;;;0.80;99.90;;;;;;5091582;28;20047;-69
2022/01/10 07:48:28;;;;;;;15.82;8.73;;;0.90;99.90;;;;;;5092408;28;20112;-69
2022/01/10 07:50:53;;;;;;;11.98;8.10;;;0.90;99.90;;;;;;5075525;28;20097;-69
2022/01/10 07:53:19;;;;;;;11.35;8.07;;;0.90;99.90;;;;;;5110127;28;20035;-69
2022/01/10 07:55:45;;;;;;;13.65;7.93;;;1.00;99.90;;;;;;5075814;28;20043;-69
2022/01/10 07:58:11;;;;;;;11.63;7.53;;;1.00;99.90;;;;;;5111319;28;20043;-68
2022/01/10 08:00:36;;;;;;;11.82;7.30;;;1.00;99.90;;;;;;5077110;28;20522;-69
2022/01/10 08:03:02;;;;;;;9.63;7.32;;;1.00;99.90;;;;;;5093332;28;20036;-69
2022/01/10 08:05:28;;;;;;;10.00;7.78;;;0.90;99.90;;;;;;5096792;27;20035;-69
2022/01/10 08:07:53;;;;;;;11.52;8.48;;;1.00;99.90;;;;;;5101712;27;20043;-69
2022/01/10 08:10:19;;;;;;;11.93;8.27;;;1.00;99.90;;;;;;5119476;27;20060;-68
2022/01/10 08:12:44;;;;;;;8.77;7.30;;;0.80;99.90;;;;;;5121574;27;20061;-68
2022/01/10 08:15:11;;;;;;;14.35;8.25;;;0.80;99.90;;;;;;5120325;27;20043;-68
2022/01/10 08:17:37;;;;;;;11.43;7.97;;;0.70;99.90;;;;;;5128114;27;20049;-68
2022/01/10 08:20:04;;;;;;;12.68;9.00;;;0.80;99.90;;;;;;5131462;27;20238;-68
2022/01/10 08:22:30;;;;;;;13.20;8.80;;;0.90;99.90;;;;;;5148400;27;20038;-67
2022/01/10 08:24:55;;;;;;;13.45;9.50;;;0.90;99.90;;;;;;5133911;27;20038;-68
2022/01/10 08:27:21;;;;;;;13.23;8.95;;;0.90;99.90;;;;;;5133769;27;20135;-68
2022/01/10 08:29:48;;;;;;;14.63;8.80;;;0.80;99.90;;;;;;5152466;27;20046;-67
2022/01/10 08:32:14;;;;;;;13.80;9.18;;;0.60;99.90;;;;;;5133419;27;20499;-68
2022/01/10 08:34:41;;;;;;;13.45;9.60;;;0.70;99.90;;;;;;5133612;27;20070;-68
2022/01/10 08:37:06;;;;;;;18.08;8.75;;;0.70;99.90;;;;;;5153721;27;20129;-68
2022/01/10 08:39:32;;;;;;;15.30;9.43;;;0.70;99.90;;;;;;5139034;27;20062;-68
2022/01/10 08:41:58;;;;;;;24.83;10.52;;;0.80;99.90;;;;;;5157312;27;20084;-68
2022/01/10 08:44:24;;;;;;;25.63;11.18;;;0.70;99.90;;;;;;5126089;27;20078;-68
2022/01/10 08:46:49;;;;;;;18.02;10.43;;;0.60;99.90;;;;;;5123099;27;20027;-68
2022/01/10 08:49:15;;;;;;;14.48;10.68;;;0.70;99.90;;;;;;5145573;27;20045;-68
2022/01/10 08:51:42;;;;;;;16.42;11.57;;;0.80;99.90;;;;;;5124638;27;20115;-68
2022/01/10 08:54:09;;;;;;;19.33;11.30;;;0.90;99.90;;;;;;5122859;27;20035;-68
2022/01/10 08:56:34;;;;;;;16.42;10.57;;;0.90;99.90;;;;;;5124201;27;20045;-68
2022/01/10 08:59:00;;;;;;;26.20;11.30;;;0.80;99.90;;;;;;5137977;27;20126;-68
2022/01/10 09:01:26;;;;;;;16.25;10.63;;;0.80;99.90;;;;;;5116405;27;20590;-67
2022/01/10 09:03:53;;;;;;;16.15;9.85;;;0.80;99.90;;;;;;5116057;27;20119;-68
2022/01/10 09:06:18;;;;;;;17.33;11.30;;;0.80;99.90;;;;;;5118576;27;20043;-68
2022/01/10 09:08:46;;;;;;;15.50;11.32;;;0.90;99.90;;;;;;5122779;27;20144;-67
2022/01/10 09:11:12;;;;;;;15.20;10.45;;;1.00;99.90;;;;;;5107226;27;20548;-68
2022/01/10 09:13:38;;;;;;;15.27;11.10;;;1.10;99.90;;;;;;5101619;27;20047;-68
2022/01/10 09:16:04;;;;;;;14.35;10.50;;;1.10;99.90;;;;;;5116072;27;20046;-68
2022/01/10 09:18:30;;;;;;;14.77;10.57;;;1.00;99.90;;;;;;5116259;27;20049;-68
2022/01/10 09:20:56;;;;;;;13.15;10.20;;;1.00;99.90;;;;;;5116523;27;20039;-68
2022/01/10 09:23:22;;;;;;;16.50;10.45;;;1.00;99.90;;;;;;5116370;27;20042;-68
2022/01/10 09:25:49;;;;;;;21.52;10.82;;;1.10;99.90;;;;;;5116354;27;20035;-68
2022/01/10 09:28:15;;;;;;;16.80;10.45;;;1.20;99.90;;;;;;5116432;27;20043;-68
2022/01/10 09:30:41;;;;;;;17.48;11.15;;;1.20;99.90;;;;;;5116467;27;20043;-68
2022/01/10 09:33:07;;;;;;;15.07;11.25;;;1.20;99.90;;;;;;5115888;27;20035;-67
2022/01/10 09:35:33;;;;;;;16.92;11.65;;;1.20;99.90;;;;;;5116345;27;20043;-67
2022/01/10 09:37:59;;;;;;;14.50;11.48;;;1.20;99.90;;;;;;5116275;27;20407;-67
2022/01/10 09:40:25;;;;;;;15.82;11.38;;;1.20;99.90;;;;;;5124218;27;20035;-68
2022/01/10 09:42:51;;;;;;;17.10;11.25;;;1.30;99.90;;;;;;5115026;27;20071;-68
2022/01/10 09:45:16;;;;;;;25.42;16.83;;;1.30;99.90;;;;;;5134509;27;20122;-68
2022/01/10 09:47:42;;;;;;;26.10;16.42;;;1.40;99.90;;;;;;5115161;28;20106;-68
2022/01/10 09:50:09;;;;;;;33.67;16.35;;;1.50;99.90;;;;;;5120653;27;20039;-68
2022/01/10 09:52:37;;;;;;;25.75;14.80;;;1.50;99.90;;;;;;5142180;27;20045;-68
2022/01/10 09:55:03;;;;;;;20.95;13.77;;;1.50;99.90;;;;;;5136659;27;20118;-67
2022/01/10 09:57:29;;;;;;;25.55;14.77;;;1.60;99.90;;;;;;5130127;27;20031;-67
2022/01/10 09:59:54;;;;;;;24.40;17.23;;;1.60;99.90;;;;;;5103612;27;20039;-68
2022/01/10 10:02:20;;;;;;;23.33;16.13;;;1.80;99.90;;;;;;5141844;27;20087;-67
2022/01/10 10:04:46;;;;;;;24.23;15.90;;;1.70;99.90;;;;;;5123545;27;20041;-68
2022/01/10 10:07:13;;;;;;;27.23;17.42;;;1.80;99.90;;;;;;5118136;27;20039;-68
2022/01/10 10:09:39;;;;;;;26.33;17.45;;;1.80;99.90;;;;;;5134062;27;20047;-67
2022/01/10 10:12:06;;;;;;;25.65;16.77;;;1.90;99.90;;;;;;5115292;27;20513;-68
2022/01/10 10:14:32;;;;;;;31.90;17.98;;;1.90;99.90;;;;;;5133434;27;20441;-68
2022/01/10 10:17:06;;;;;;;30.42;18.52;;;1.90;99.90;;;;;;5115379;27;20039;-69
2022/01/10 10:19:32;;;;;;;26.92;17.00;;;2.00;99.90;;;;;;5133928;27;20100;-70
2022/01/10 10:21:59;;;;;;;29.58;16.65;;;2.00;99.90;;;;;;5133475;27;20047;-70
2022/01/10 10:24:26;;;;;;;29.65;16.88;;;2.10;99.90;;;;;;5115306;27;20062;-69
2022/01/10 10:26:52;;;;;;;32.20;19.25;;;2.10;99.90;;;;;;5115315;27;20055;-69
2022/01/10 10:29:19;;;;;;;27.13;17.67;;;2.20;99.90;;;;;;5133681;27;20043;-69
2022/01/10 10:31:50;;;;;;;28.95;17.58;;;2.20;99.90;;;;;;5133254;27;20050;-69
2022/01/10 10:34:19;;;;;;;30.58;17.58;;;2.20;99.90;;;;;;5133503;27;20046;-69
2022/01/10 10:36:45;;;;;;;28.42;17.45;;;2.20;99.90;;;;;;5098004;27;20046;-69
2022/01/10 10:39:11;;;;;;;34.97;20.02;;;2.30;99.90;;;;;;5133540;27;20164;-68
2022/01/10 10:41:39;;;;;;;34.35;20.30;;;2.30;99.90;;;;;;5114751;27;20043;-68
2022/01/10 10:44:05;;;;;;;33.50;21.58;;;2.30;99.90;;;;;;5115006;27;20043;-68
2022/01/10 10:46:31;;;;;;;40.85;21.08;;;2.40;99.90;;;;;;5133093;27;20039;-69
2022/01/10 10:49:08;;;;;;;35.58;19.95;;;2.60;99.90;;;;;;5114864;27;20051;-69
2022/01/10 10:51:36;;;;;;;27.60;19.55;;;2.60;99.90;;;;;;5133081;27;20160;-69
2022/01/10 10:54:09;;;;;;;31.90;19.15;;;2.50;99.90;;;;;;5114636;27;20039;-68
2022/01/10 10:56:39;;;;;;;34.85;20.95;;;2.60;99.90;;;;;;5114746;27;20043;-68
2022/01/10 10:59:07;;;;;;;36.38;19.90;;;2.70;99.90;;;;;;5132180;27;20491;-69
2022/01/10 11:01:36;;;;;;;36.20;18.92;;;2.70;99.90;;;;;;5114239;27;20043;-67
2022/01/10 11:04:03;;;;;;;36.95;19.33;;;2.70;99.90;;;;;;5097547;27;20503;-68
2022/01/10 11:06:31;;;;;;;36.72;20.10;;;2.70;99.90;;;;;;5116928;27;20046;-68
2022/01/10 11:08:59;;;;;;;34.78;19.75;;;2.80;99.90;;;;;;5119557;27;20574;-69
2022/01/10 11:11:25;;;;;;;35.47;20.85;;;2.80;99.90;;;;;;5132688;27;20053;-69
2022/01/10 11:13:55;;;;;;;40.35;21.85;;;2.90;99.90;;;;;;5114511;27;20035;-68
2022/01/10 11:16:22;;;;;;;36.85;21.10;;;3.00;99.90;;;;;;5114611;27;20067;-69
2022/01/10 11:18:48;;;;;;;38.13;19.73;;;3.00;99.90;;;;;;5132981;27;20047;-67
2022/01/10 11:21:15;;;;;;;29.33;19.17;;;3.00;99.90;;;;;;5114726;27;20042;-67
2022/01/10 11:23:44;;;;;;;34.60;18.48;;;3.10;99.90;;;;;;5132283;27;20447;-67
2022/01/10 11:26:11;;;;;;;37.70;20.13;;;3.10;99.90;;;;;;5132595;27;20043;-66
2022/01/10 11:28:55;;;;;;;42.47;19.48;;;3.10;99.90;;;;;;5114192;27;20071;-67
2022/01/10 11:31:26;;;;;;;36.92;19.40;;;3.20;99.90;;;;;;5113808;27;20031;-66
2022/01/10 11:33:54;;;;;;;37.10;17.85;;;3.30;99.90;;;;;;5132385;27;20035;-67
2022/01/10 11:36:24;;;;;;;39.70;19.98;;;3.20;99.90;;;;;;5116989;27;20498;-67
2022/01/10 11:38:56;;;;;;;33.22;18.08;;;3.20;99.90;;;;;;5121631;27;20041;-67
2022/01/10 11:41:23;;;;;;;27.67;18.63;;;3.30;99.90;;;;;;5132197;27;20035;-67
2022/01/10 11:43:54;;;;;;;33.92;19.42;;;3.30;99.90;;;;;;5118901;27;20067;-66
2022/01/10 11:46:25;;;;;;;31.63;18.25;;;3.30;99.90;;;;;;5119348;27;20035;-66
2022/01/10 11:49:04;;;;;;;38.80;19.15;;;3.40;99.90;;;;;;5122205;27;20034;-67
2022/01/10 11:51:35;;;;;;;33.58;18.98;;;3.40;99.90;;;;;;5114141;27;20047;-66
2022/01/10 11:54:06;;;;;;;40.22;19.30;;;3.40;99.90;;;;;;5119628;27;20039;-67
2022/01/10 11:56:33;;;;;;;35.47;20.10;;;3.40;99.90;;;;;;5076355;28;20051;-67
2022/01/10 11:59:23;;;;;;;30.95;19.17;;;3.40;99.90;;;;;;5109913;28;20040;-67
2022/01/10 12:01:57;;;;;;;31.65;18.77;;;3.50;99.90;;;;;;5109539;28;20047;-67
2022/01/10 12:04:25;;;;;;;39.13;19.40;;;3.50;99.90;;;;;;5113434;27;20121;-67
2022/01/10 12:06:51;;;;;;;34.97;20.50;;;3.60;99.90;;;;;;5113533;28;20039;-67
2022/01/10 12:09:17;;;;;;;28.65;18.08;;;3.70;99.90;;;;;;5096280;27;20406;-67
2022/01/10 12:11:45;;;;;;;32.45;20.98;;;3.70;99.90;;;;;;5112061;28;20082;-67
2022/01/10 12:14:11;;;;;;;38.75;20.13;;;3.80;99.90;;;;;;5131633;27;20035;-68
2022/01/10 12:16:37;;;;;;;34.65;18.60;;;3.80;99.90;;;;;;5113297;28;20521;-67
2022/01/10 12:19:03;;;;;;;33.22;19.90;;;3.90;99.90;;;;;;5113489;28;20384;-67
2022/01/10 12:21:32;;;;;;;30.45;19.98;;;3.90;99.90;;;;;;5131615;28;20414;-67
2022/01/10 12:23:59;;;;;;;34.28;19.60;;;3.90;99.90;;;;;;5096369;28;20464;-67
2022/01/10 12:26:26;;;;;;;37.80;20.80;;;4.00;99.90;;;;;;5112873;28;20039;-67
2022/01/10 12:28:59;;;;;;;33.13;20.38;;;4.00;99.90;;;;;;5113537;28;20054;-67
2022/01/10 12:31:27;;;;;;;30.60;18.20;;;4.10;99.90;;;;;;5113086;28;20035;-67
2022/01/10 12:33:53;;;;;;;36.33;19.33;;;4.10;99.90;;;;;;5118634;28;20119;-67
2022/01/10 12:36:21;;;;;;;37.70;20.15;;;4.10;99.90;;;;;;5114060;28;20050;-67
2022/01/10 12:38:59;;;;;;;36.47;19.00;;;4.10;99.90;;;;;;5114224;28;20407;-67
2022/01/10 12:41:28;;;;;;;34.70;18.17;;;4.10;99.90;;;;;;5096988;28;20114;-67
2022/01/10 12:43:55;;;;;;;38.72;19.27;;;4.30;99.90;;;;;;5113075;28;20039;-67
2022/01/10 12:46:22;;;;;;;42.70;19.42;;;4.30;99.90;;;;;;5113011;28;20039;-67
2022/01/10 12:48:50;;;;;;;34.25;20.08;;;4.30;99.90;;;;;;5113263;28;20672;-67
2022/01/10 12:51:18;;;;;;;33.13;18.85;;;4.30;99.90;;;;;;5112995;28;20035;-68
2022/01/10 12:53:48;;;;;;;27.75;17.60;;;4.20;99.90;;;;;;5112724;28;20479;-70
2022/01/10 12:56:18;;;;;;;33.63;20.33;;;4.20;99.90;;;;;;5095571;28;20066;-69